createdAt,value
2022-08-25T00:04:16.874Z,21.65
2022-08-25T00:09:22.653Z,21.58
2022-08-25T00:14:27.992Z,21.58
2022-08-25T00:19:35.525Z,21.61
2022-08-25T00:24:37.089Z,21.64
2022-08-25T00:29:39.102Z,21.70
2022-08-25T00:34:40.635Z,21.79
2022-08-25T00:39:42.276Z,21.86
2022-08-25T00:44:44.072Z,21.92
2022-08-25T00:49:50.049Z,22.00
2022-08-25T00:55:08.357Z,21.96
2022-08-25T01:00:35.928Z,21.98
2022-08-25T01:05:38.515Z,21.93
2022-08-25T01:10:43.939Z,21.90
2022-08-25T01:15:50.484Z,21.89
2022-08-25T01:20:53.828Z,21.92
2022-08-25T01:26:07.705Z,21.87
2022-08-25T01:31:23.909Z,21.83
2022-08-25T01:36:28.018Z,21.79
2022-08-25T01:41:29.443Z,21.92
2022-08-25T01:46:31.138Z,21.93
2022-08-25T01:52:06.043Z,21.97
2022-08-25T01:57:07.579Z,21.92
2022-08-25T02:02:09.535Z,21.89
2022-08-25T02:07:12.157Z,21.81
2022-08-25T02:12:13.891Z,21.91
2022-08-25T02:17:15.466Z,21.85
2022-08-25T02:22:17.336Z,21.89
2022-08-25T02:27:18.833Z,21.89
2022-08-25T02:32:20.335Z,21.97
2022-08-25T02:37:21.813Z,21.96
2022-08-25T02:42:24.735Z,21.92
2022-08-25T02:47:26.896Z,21.91
2022-08-25T02:52:28.741Z,21.92
2022-08-25T02:57:30.869Z,22.03
2022-08-25T03:02:32.442Z,22.04
2022-08-25T03:07:35.683Z,22.08
2022-08-25T03:12:37.266Z,22.02
2022-08-25T03:17:38.969Z,22.01
2022-08-25T03:22:42.691Z,22.01
2022-08-25T03:27:44.357Z,22.11
2022-08-25T03:32:45.956Z,22.09
2022-08-25T03:37:47.531Z,22.14
2022-08-25T03:42:51.098Z,22.21
2022-08-25T03:47:53.825Z,22.21
2022-08-25T03:52:56.985Z,22.22
2022-08-25T03:57:58.512Z,22.21
2022-08-25T04:03:00.047Z,22.23
2022-08-25T04:08:01.937Z,22.21
2022-08-25T04:13:03.574Z,22.16
2022-08-25T04:18:05.345Z,22.13
2022-08-25T04:23:06.983Z,22.10
2022-08-25T04:28:09.704Z,22.10
2022-08-25T04:33:11.204Z,22.08
2022-08-25T04:38:12.709Z,22.06
2022-08-25T04:43:14.227Z,22.05
2022-08-25T04:48:15.749Z,22.05
2022-08-25T04:53:18.463Z,22.06
2022-08-25T04:58:20.490Z,22.10
2022-08-25T05:03:21.969Z,22.13
2022-08-25T05:08:24.048Z,22.12
2022-08-25T05:13:26.291Z,22.16
2022-08-25T05:18:31.254Z,22.14
2022-08-25T05:23:33.322Z,22.13
2022-08-25T05:28:34.833Z,22.09
2022-08-25T05:33:37.826Z,22.12
2022-08-25T05:38:40.926Z,22.12
2022-08-25T05:43:44.992Z,22.10
2022-08-25T05:48:47.076Z,22.08
2022-08-25T05:53:50.735Z,22.11
2022-08-25T05:58:52.236Z,22.11
2022-08-25T06:03:54.334Z,22.15
2022-08-25T06:08:55.964Z,22.20
2022-08-25T06:13:57.610Z,22.29
2022-08-25T06:18:59.195Z,22.33
2022-08-25T06:24:00.735Z,22.42
2022-08-25T06:29:02.697Z,22.52
2022-08-25T06:34:04.272Z,22.58
2022-08-25T06:39:06.351Z,22.55
2022-08-25T06:44:07.976Z,22.64
2022-08-25T06:49:09.539Z,22.80
2022-08-25T06:54:11.104Z,22.90
2022-08-25T06:59:12.787Z,23.16
2022-08-25T07:04:14.318Z,23.70
2022-08-25T07:09:16.741Z,23.62
2022-08-25T07:14:19.091Z,23.50
2022-08-25T07:19:21.148Z,23.33
2022-08-25T07:24:23.784Z,23.35
2022-08-25T07:29:32.943Z,23.39
2022-08-25T07:34:53.474Z,23.46
2022-08-25T07:39:55.380Z,23.65
2022-08-25T07:44:58.606Z,23.80
2022-08-25T07:50:00.141Z,23.64
2022-08-25T07:55:02.278Z,23.93
2022-08-25T08:00:06.262Z,24.83
2022-08-25T08:05:09.877Z,25.51
2022-08-25T08:15:36.859Z,25.89
2022-08-25T08:20:42.665Z,26.15
2022-08-25T08:25:44.672Z,26.28
2022-08-25T08:30:53.785Z,26.21
2022-08-25T08:36:04.968Z,26.32
2022-08-25T08:41:33.850Z,26.42
2022-08-25T08:47:05.360Z,26.49
2022-08-25T08:52:14.922Z,26.49
2022-08-25T08:57:22.478Z,26.40
2022-08-25T09:02:51.665Z,26.36
2022-08-25T09:08:20.386Z,26.23
2022-08-25T09:13:39.963Z,26.16
2022-08-25T09:19:00.101Z,26.27
2022-08-25T09:24:28.280Z,26.32
2022-08-25T09:29:58.130Z,26.27
2022-08-25T09:35:02.765Z,26.19
2022-08-25T09:40:04.609Z,26.30
2022-08-25T09:45:06.628Z,26.55
2022-08-25T09:50:18.645Z,26.74
2022-08-25T09:55:32.511Z,26.96
2022-08-25T10:00:34.813Z,27.15
2022-08-25T10:05:49.789Z,27.43
2022-08-25T10:10:59.748Z,27.72
2022-08-25T10:16:27.812Z,27.74
2022-08-25T10:21:33.289Z,27.59
2022-08-25T10:26:59.691Z,27.52
2022-08-25T10:32:15.712Z,27.56
2022-08-25T10:37:42.179Z,27.67
2022-08-25T10:42:51.467Z,27.67
2022-08-25T10:48:13.060Z,27.76
2022-08-25T10:53:29.031Z,27.91
2022-08-25T10:58:59.735Z,28.20
2022-08-25T11:04:08.816Z,28.30
2022-08-25T11:09:15.939Z,28.50
2022-08-25T11:14:40.583Z,28.89
2022-08-25T11:19:45.883Z,28.98
2022-08-25T11:24:53.464Z,28.90
2022-08-25T11:30:06.087Z,28.84
2022-08-25T11:35:14.107Z,28.68
2022-08-25T11:40:40.826Z,28.77
2022-08-25T11:46:19.224Z,28.86
2022-08-25T11:51:31.428Z,28.92
2022-08-25T11:56:43.266Z,29.23
2022-08-25T12:01:47.456Z,29.29
2022-08-25T12:07:07.150Z,29.22
2022-08-25T12:12:43.977Z,29.27
2022-08-25T12:18:07.486Z,29.30
2022-08-25T12:23:11.298Z,29.30
2022-08-25T12:28:35.629Z,29.34
2022-08-25T12:34:06.335Z,29.37
2022-08-25T12:39:37.319Z,29.41
2022-08-25T12:44:45.534Z,29.44
2022-08-25T12:49:48.449Z,29.51
2022-08-25T12:55:00.489Z,29.58
2022-08-25T13:00:16.253Z,29.71
2022-08-25T13:05:50.052Z,29.81
2022-08-25T13:11:13.260Z,29.79
2022-08-25T13:16:29.114Z,29.81
2022-08-25T13:21:38.884Z,29.78
2022-08-25T13:26:47.119Z,29.63
2022-08-25T13:31:57.626Z,29.59
2022-08-25T13:37:26.239Z,29.61
2022-08-25T13:42:28.817Z,29.72
2022-08-25T13:47:45.611Z,29.88
2022-08-25T13:52:59.955Z,29.88
2022-08-25T13:58:02.292Z,29.87
2022-08-25T14:03:12.684Z,30.02
2022-08-25T14:08:32.452Z,30.19
2022-08-25T14:13:34.927Z,30.60
2022-08-25T14:18:36.899Z,30.58
2022-08-25T14:23:39.615Z,30.40
2022-08-25T14:28:41.193Z,30.24
2022-08-25T14:33:50.143Z,30.13
2022-08-25T14:38:54.614Z,30.09
2022-08-25T14:43:56.553Z,30.13
2022-08-25T14:49:01.429Z,30.13
2022-08-25T14:54:07.290Z,30.27
2022-08-25T14:59:10.415Z,30.63
2022-08-25T15:04:17.616Z,30.97
2022-08-25T15:09:21.047Z,30.84
2022-08-25T15:14:28.417Z,30.95
2022-08-25T15:19:34.921Z,31.00
2022-08-25T15:24:38.938Z,30.98
2022-08-25T15:29:40.897Z,30.97
2022-08-25T15:34:43.003Z,30.87
2022-08-25T15:39:46.168Z,30.73
2022-08-25T15:44:53.541Z,30.81
2022-08-25T15:50:05.050Z,30.86
2022-08-25T15:55:07.911Z,30.54
2022-08-25T16:00:11.915Z,30.35
2022-08-25T16:05:16.184Z,30.27
2022-08-25T16:10:18.067Z,30.22
2022-08-25T16:15:23.753Z,30.24
2022-08-25T16:20:26.198Z,30.32
2022-08-25T16:25:28.468Z,30.35
2022-08-25T16:30:30.430Z,30.26
2022-08-25T16:35:31.995Z,29.96
2022-08-25T16:40:33.890Z,29.72
2022-08-25T16:45:36.471Z,29.61
2022-08-25T16:50:39.569Z,29.47
2022-08-25T16:55:41.970Z,29.31
2022-08-25T17:00:44.015Z,29.30
2022-08-25T17:05:46.685Z,29.21
2022-08-25T17:10:48.470Z,28.86
2022-08-25T17:15:52.506Z,28.47
2022-08-25T17:21:07.110Z,28.28
2022-08-25T17:26:14.595Z,28.01
2022-08-25T17:31:16.503Z,27.71
2022-08-25T17:36:18.592Z,27.41
2022-08-25T17:41:20.646Z,27.09
2022-08-25T17:46:22.741Z,26.72
2022-08-25T17:51:24.303Z,26.33
2022-08-25T17:56:27.548Z,26.07
2022-08-25T18:01:32.584Z,25.91
2022-08-25T18:06:34.140Z,25.79
2022-08-25T18:11:36.124Z,25.62
2022-08-25T18:16:38.785Z,25.44
2022-08-25T18:21:40.339Z,25.37
2022-08-25T18:26:44.782Z,25.24
2022-08-25T18:31:48.788Z,25.16
2022-08-25T18:36:51.134Z,24.95
2022-08-25T18:41:54.187Z,24.80
2022-08-25T18:46:56.220Z,24.58
2022-08-25T18:51:57.941Z,24.46
2022-08-25T18:56:59.493Z,24.25
2022-08-25T19:02:01.467Z,24.15
2022-08-25T19:07:07.978Z,24.04
2022-08-25T19:12:11.849Z,23.89
2022-08-25T19:17:24.732Z,23.76
2022-08-25T19:22:40.788Z,23.56
2022-08-25T19:27:43.871Z,23.41
2022-08-25T19:32:47.080Z,23.15
2022-08-25T19:37:49.796Z,23.07
2022-08-25T19:42:51.809Z,22.97
2022-08-25T19:47:56.258Z,22.92
2022-08-25T19:52:57.987Z,22.80
2022-08-25T19:58:00.151Z,22.81
2022-08-25T20:03:02.305Z,22.70
2022-08-25T20:08:05.435Z,22.64
2022-08-25T20:13:07.622Z,22.66
2022-08-25T20:18:10.116Z,22.63
2022-08-25T20:23:30.206Z,22.56
2022-08-25T20:28:31.715Z,22.49
2022-08-25T20:33:34.537Z,22.38
2022-08-25T20:38:36.394Z,22.31
2022-08-25T20:43:40.779Z,22.23
2022-08-25T20:48:43.119Z,22.24
2022-08-25T20:53:44.629Z,22.14
2022-08-25T20:58:48.570Z,22.08
2022-08-25T21:03:50.805Z,22.02
2022-08-25T21:08:52.314Z,21.93
2022-08-25T21:13:54.442Z,21.89
2022-08-25T21:18:57.508Z,21.91
2022-08-25T21:23:59.910Z,21.92
2022-08-25T21:29:04.161Z,21.89
2022-08-25T21:34:07.226Z,21.88
2022-08-25T21:39:10.494Z,21.87
2022-08-25T21:44:13.802Z,21.85
2022-08-25T21:49:15.738Z,21.86
2022-08-25T21:54:19.050Z,21.85
2022-08-25T21:59:30.776Z,21.81
2022-08-25T22:04:33.039Z,21.78
2022-08-25T22:09:35.560Z,21.79
2022-08-25T22:14:37.946Z,21.85
2022-08-25T22:19:39.438Z,21.81
2022-08-25T22:24:41.325Z,21.80
2022-08-25T22:29:43.633Z,21.81
2022-08-25T22:34:47.164Z,21.81
2022-08-25T22:39:48.770Z,21.76
2022-08-25T22:44:50.760Z,21.67
2022-08-25T22:49:52.656Z,21.68
2022-08-25T22:54:54.189Z,21.74
2022-08-25T22:59:56.617Z,21.72
2022-08-25T23:04:58.380Z,21.64
2022-08-25T23:10:05.576Z,21.65
2022-08-25T23:15:11.637Z,21.61
2022-08-25T23:20:31.844Z,21.61
2022-08-25T23:25:40.050Z,21.52
2022-08-25T23:30:42.858Z,21.60
2022-08-25T23:35:46.474Z,21.59
2022-08-25T23:40:48.017Z,21.59
2022-08-25T23:45:49.686Z,21.57
2022-08-25T23:50:53.910Z,21.51
2022-08-25T23:55:56.944Z,21.51
